TR-0013 weather

CLOSED Konya West Airport
Meram, Konya Province, Turkey

Public forecast

Using degrees Celsius for public forecast. Weather courtesy of forecast.io.

Closest aviation weather report (METAR) to Konya West Airport

Closest report is Konya Airport, 8.7 nm (16.2 km) NE. Retrieved 2019/12/12 20:50 UTC (21 minutes ago):

LTAN 122050Z 00000KT 9999 FEW040 BKN180 02/02 Q1007 NOSIG RMK RWY19 19003KT

Closest aviation forecast (TAF) to Konya West Airport

Forecast is more than 12 hours old.

Closest forecast is Konya Airport, 8.7 nm (16.2 km) NE. Retrieved 2010/09/30 10:40 UTC (9 years ago):

TAF LTAN 301040Z 3012/0112 24012KT 9999 SCT035 BKN090 TEMPO 3012/3016 -SHRA BKN035